EHGG/GRQ METAR and TAF weather

Enter ICAO airport designator
Station Type Date Time Source
EHGG METAR 2021/08/01 17:55 UTC NOAA

EHGG 011755Z AUTO 31009KT 270V350 9999 FEW026 SCT030 BKN036 17/11 Q1009 NOSIG


Station Type Date Time Source
EHGG Decoded METAR 2021/08/01 17:55 UTC NOAA

Groningen Airport Eelde, Netherlands (EHGG) 53-08N 006-35E 4M
Aug 01, 2021 - 01:55 PM EDT / 2021.08.01 1755 UTC
Wind: from the NW (310 degrees) at 10 MPH (9 KT) (direction variable):0
Visibility: greater than 7 mile(s):0
Sky conditions: mostly cloudy
Temperature: 62 F (17 C)
Dew Point: 51 F (11 C)
Relative Humidity: 67%
Pressure (altimeter): 29.80 in. Hg (1009 hPa)
ob: EHGG 011755Z AUTO 31009KT 270V350 9999 FEW026 SCT030 BKN036 17/11 Q1009 NOSIG
cycle: 18

Station Type Date Time Source
EHGG TAF 2021/08/01 18:27 UTC NOAA

TAF EHGG 011716Z 0118/0224 31008KT 9999 SCT025 PROB30
TEMPO 0208/0213 7000 -SHRA FEW020TCU

Example: see airport list